Lawyersville, New York
Current Conditions -  °F | °C
As of 6:15 PM on Saturday 25 Oct 2014 (Local Time) from KNY0 Reporting Station
Overcast Overcast  
Wind Chill: 56°   Ceiling: 6500
Heat Index: 56°   Visibility: 10mi
Dew Point: 43°   Wind: 6mph
Humidity: 61%   Direction: 180°S
Pressure: 29.54"   Gusts: NA
Location:  42.6995°N, 74.5108°W
Report Text: KNY0 252215Z AUTO 18005KT 10SM OVC065 14/06 A2954 RMK AO2 T01350060
Loading
Personal Weather Stations






























Interactive Weather Map
Tropical Storm Tracking
New forecast layout! Learn more

10-Day Weather Forecast

Advertisements
Track Severe Weather on mobile